createdAt,value
2023-04-12T00:00:20.281Z,65.06
2023-04-12T00:03:20.538Z,65.09
2023-04-12T00:06:14.046Z,65.08
2023-04-12T00:08:48.505Z,65.11
2023-04-12T00:11:40.535Z,65.43
2023-04-12T00:14:15.895Z,65.15
2023-04-12T00:17:07.862Z,65.18
2023-04-12T00:19:59.821Z,64.97
2023-04-12T00:22:51.996Z,65.02
2023-04-12T00:25:43.941Z,64.96
2023-04-12T00:28:21.429Z,65.06
2023-04-12T00:31:13.475Z,65.04
2023-04-12T00:34:05.774Z,65.16
2023-04-12T00:36:57.771Z,65.26
2023-04-12T00:39:50.128Z,65.18
2023-04-12T00:42:42.249Z,65.22
2023-04-12T00:45:34.561Z,65.22
2023-04-12T00:48:27.553Z,65.31
2023-04-12T00:51:10.594Z,64.90
2023-04-12T00:54:03.649Z,64.85
2023-04-12T00:56:57.302Z,64.98
2023-04-12T00:59:49.380Z,65.11
2023-04-12T01:02:42.612Z,65.05
2023-04-12T01:05:44.403Z,65.09
2023-04-12T01:08:45.941Z,65.03
2023-04-12T01:11:37.136Z,65.16
2023-04-12T01:14:36.655Z,65.09
2023-04-12T01:17:31.990Z,65.01
2023-04-12T01:20:28.763Z,65.16
2023-04-12T01:23:34.574Z,65.02
2023-04-12T01:26:37.315Z,64.88
2023-04-12T01:29:31.144Z,65.07
2023-04-12T01:32:24.191Z,64.81
2023-04-12T01:35:09.704Z,64.81
2023-04-12T01:38:02.518Z,64.92
2023-04-12T01:40:51.020Z,64.97
2023-04-12T01:43:47.146Z,64.86
2023-04-12T01:46:39.141Z,65.02
2023-04-12T01:49:37.689Z,64.83
2023-04-12T01:52:24.083Z,64.85
2023-04-12T01:55:13.025Z,64.77
2023-04-12T01:58:06.130Z,64.96
2023-04-12T02:01:00.940Z,64.95
2023-04-12T02:03:53.504Z,64.90
2023-04-12T02:06:37.353Z,65.01
2023-04-12T02:09:29.483Z,65.04
2023-04-12T02:12:21.479Z,65.00
2023-04-12T02:15:02.457Z,64.99
2023-04-12T02:17:54.585Z,65.08
2023-04-12T02:20:46.602Z,65.09
2023-04-12T02:23:38.636Z,65.10
2023-04-12T02:26:30.618Z,65.21
2023-04-12T02:29:19.594Z,65.02
2023-04-12T02:32:11.559Z,64.90
2023-04-12T02:34:54.411Z,64.85
2023-04-12T02:37:49.135Z,64.98
2023-04-12T02:40:42.609Z,65.03
2023-04-12T02:43:34.896Z,64.79
2023-04-12T02:46:28.552Z,64.97
2023-04-12T02:49:20.786Z,64.98
2023-04-12T02:52:13.132Z,64.81
2023-04-12T02:55:05.398Z,64.94
2023-04-12T02:57:57.530Z,65.01
2023-04-12T03:00:50.044Z,65.09
2023-04-12T03:03:42.816Z,64.97
2023-04-12T03:06:17.420Z,64.87
2023-04-12T03:08:54.571Z,65.06
2023-04-12T03:11:47.208Z,64.89
2023-04-12T03:14:27.777Z,65.11
2023-04-12T03:17:19.698Z,64.98
2023-04-12T03:20:13.465Z,64.97
2023-04-12T03:23:05.529Z,64.98
2023-04-12T03:25:58.090Z,64.82
2023-04-12T03:28:50.126Z,65.02
2023-04-12T03:31:42.222Z,64.84
2023-04-12T03:34:34.307Z,64.94
2023-04-12T03:37:08.808Z,64.84
2023-04-12T03:39:47.705Z,64.62
2023-04-12T03:42:32.966Z,64.68
2023-04-12T03:45:26.535Z,64.59
2023-04-12T03:48:01.712Z,64.62
2023-04-12T03:50:54.554Z,64.76
2023-04-12T03:53:46.570Z,64.58
2023-04-12T03:56:21.200Z,64.53
2023-04-12T03:59:14.729Z,64.77
2023-04-12T04:02:07.366Z,64.90
2023-04-12T04:04:59.563Z,64.72
2023-04-12T04:07:41.822Z,64.83
2023-04-12T04:10:27.403Z,64.86
2023-04-12T04:13:19.567Z,64.99
2023-04-12T04:16:13.101Z,64.99
2023-04-12T04:19:05.208Z,64.81
2023-04-12T04:21:40.803Z,64.99
2023-04-12T04:24:22.289Z,65.05
2023-04-12T04:27:15.652Z,65.24
2023-04-12T04:30:10.445Z,65.15
2023-04-12T04:32:49.931Z,65.30
2023-04-12T04:35:43.604Z,65.33
2023-04-12T04:38:35.783Z,65.31
2023-04-12T04:41:28.019Z,65.23
2023-04-12T04:44:04.533Z,65.03
2023-04-12T04:46:58.516Z,65.11
2023-04-12T04:49:50.750Z,65.24
2023-04-12T04:52:25.692Z,65.23
2023-04-12T04:55:13.072Z,65.04
2023-04-12T04:58:05.032Z,65.12
2023-04-12T05:01:00.629Z,65.02
2023-04-12T05:03:52.772Z,64.63
2023-04-12T05:06:44.843Z,64.83
2023-04-12T05:09:36.879Z,65.07
2023-04-12T05:12:11.539Z,64.81
2023-04-12T05:17:50.081Z,64.88
2023-04-12T05:20:42.332Z,64.84
2023-04-12T05:23:36.106Z,64.59
2023-04-12T05:26:28.183Z,64.42
2023-04-12T05:29:03.036Z,64.60
2023-04-12T05:31:55.042Z,64.58
2023-04-12T05:34:47.114Z,64.68
2023-04-12T05:37:39.083Z,64.74
2023-04-12T05:40:21.937Z,64.42
2023-04-12T05:42:54.887Z,64.42
2023-04-12T05:45:46.962Z,64.44
2023-04-12T05:48:28.170Z,64.66
2023-04-12T05:51:30.691Z,64.75
2023-04-12T05:54:30.036Z,64.57
2023-04-12T05:57:22.092Z,64.57
2023-04-12T05:59:56.783Z,64.34
2023-04-12T06:02:50.533Z,64.38
2023-04-12T06:05:24.975Z,64.22
2023-04-12T06:08:17.074Z,64.31
2023-04-12T06:11:11.485Z,64.26
2023-04-12T06:13:44.699Z,64.37
2023-04-12T06:16:36.764Z,64.07
2023-04-12T06:19:28.893Z,63.99
2023-04-12T06:22:20.947Z,64.16
2023-04-12T06:25:12.975Z,64.12
2023-04-12T06:27:48.141Z,64.14
2023-04-12T06:30:40.209Z,63.81
2023-04-12T06:33:32.731Z,63.82
2023-04-12T06:36:24.826Z,63.61
2023-04-12T06:39:04.772Z,63.44
2023-04-12T06:41:43.546Z,63.73
2023-04-12T06:44:35.630Z,63.89
2023-04-12T06:47:28.427Z,63.99
2023-04-12T06:50:20.819Z,63.66
2023-04-12T06:53:01.372Z,63.49
2023-04-12T06:55:53.846Z,63.40
2023-04-12T06:58:46.796Z,63.34
2023-04-12T07:01:39.545Z,62.95
2023-04-12T07:04:32.908Z,62.56
2023-04-12T07:07:24.912Z,62.15
2023-04-12T07:10:17.160Z,62.60
2023-04-12T07:13:09.225Z,62.25
2023-04-12T07:16:01.877Z,61.90
2023-04-12T07:18:54.073Z,61.78
2023-04-12T07:21:46.066Z,61.81
2023-04-12T07:24:38.000Z,61.46
2023-04-12T07:27:12.468Z,61.31
2023-04-12T07:30:04.769Z,61.32
2023-04-12T07:33:08.649Z,61.30
2023-04-12T07:35:56.903Z,60.68
2023-04-12T07:38:51.456Z,60.50
2023-04-12T07:41:33.703Z,60.07
2023-04-12T07:44:25.696Z,59.38
2023-04-12T07:47:17.648Z,59.11
2023-04-12T07:50:13.213Z,58.85
2023-04-12T07:53:23.183Z,58.53
2023-04-12T07:56:15.348Z,58.23
2023-04-12T07:59:07.603Z,59.46
2023-04-12T08:01:59.731Z,58.98
2023-04-12T08:04:51.888Z,57.60
2023-04-12T08:07:43.897Z,57.10
2023-04-12T08:10:37.759Z,56.76
2023-04-12T08:13:21.280Z,56.95
2023-04-12T08:16:13.340Z,55.92
2023-04-12T08:19:05.768Z,57.88
2023-04-12T08:21:46.506Z,54.06
2023-04-12T08:24:38.551Z,51.73
2023-04-12T08:27:19.413Z,51.41
2023-04-12T08:30:13.767Z,55.00
2023-04-12T08:33:05.922Z,51.95
2023-04-12T08:35:58.056Z,50.75
2023-04-12T08:38:52.389Z,48.54
2023-04-12T08:41:47.819Z,46.09
2023-04-12T08:44:41.449Z,41.35
2023-04-12T08:47:35.653Z,39.89
2023-04-12T08:50:29.213Z,39.28
2023-04-12T08:53:21.229Z,38.42
2023-04-12T08:56:14.892Z,40.56
2023-04-12T08:59:07.026Z,37.57
2023-04-12T09:01:59.957Z,36.77
2023-04-12T09:04:53.730Z,37.43
2023-04-12T09:07:30.491Z,36.74
2023-04-12T09:10:36.526Z,35.77
2023-04-12T09:13:37.087Z,36.31
2023-04-12T09:16:40.211Z,37.65
2023-04-12T09:19:36.956Z,37.02
2023-04-12T09:22:40.062Z,35.81
2023-04-12T09:25:45.137Z,34.07
2023-04-12T09:28:37.509Z,32.38
2023-04-12T09:31:29.820Z,30.73
2023-04-12T09:34:21.863Z,30.21
2023-04-12T09:37:17.832Z,30.19
2023-04-12T09:40:11.986Z,30.59
2023-04-12T09:43:04.532Z,30.90
2023-04-12T09:46:13.089Z,31.87
2023-04-12T09:49:05.648Z,32.73
2023-04-12T09:51:59.527Z,31.53
2023-04-12T09:54:52.991Z,29.56
2023-04-12T09:57:31.039Z,28.45
2023-04-12T10:00:26.984Z,27.11
2023-04-12T10:03:21.457Z,25.82
2023-04-12T10:06:15.540Z,24.64
2023-04-12T10:09:08.761Z,24.98
2023-04-12T10:12:03.168Z,25.20
2023-04-12T10:14:35.706Z,25.14
2023-04-12T10:17:28.262Z,24.21
2023-04-12T10:20:21.706Z,23.32
2023-04-12T10:23:14.249Z,22.63
2023-04-12T10:26:07.555Z,22.41
2023-04-12T10:29:28.872Z,22.18
2023-04-12T10:32:24.927Z,22.44
2023-04-12T10:35:17.235Z,22.89
2023-04-12T10:38:09.443Z,23.42
2023-04-12T10:41:13.999Z,23.99
2023-04-12T10:44:26.700Z,24.33
2023-04-12T10:46:58.882Z,24.60
2023-04-12T10:50:24.970Z,25.12
2023-04-12T10:53:26.450Z,25.95
2023-04-12T10:56:42.261Z,26.59
2023-04-12T10:59:55.583Z,26.98
2023-04-12T11:02:34.306Z,28.09
2023-04-12T11:05:26.752Z,28.66
2023-04-12T11:08:21.270Z,29.04
2023-04-12T11:11:23.135Z,29.40
2023-04-12T11:14:15.898Z,30.12
2023-04-12T11:17:25.876Z,31.56
2023-04-12T11:20:18.603Z,30.87
2023-04-12T11:23:12.283Z,30.19
2023-04-12T11:26:06.159Z,30.28
2023-04-12T11:28:41.201Z,30.66
2023-04-12T11:31:23.187Z,30.61
2023-04-12T11:34:05.934Z,31.43
2023-04-12T11:36:59.353Z,31.02
2023-04-12T11:39:58.056Z,31.01
2023-04-12T11:42:50.379Z,31.12
2023-04-12T11:45:42.691Z,31.53
2023-04-12T11:48:35.069Z,32.04
2023-04-12T11:51:31.574Z,32.15
2023-04-12T11:54:30.931Z,31.62
2023-04-12T11:57:06.546Z,31.53
2023-04-12T11:59:46.668Z,31.38
2023-04-12T12:02:49.044Z,31.63
2023-04-12T12:05:45.091Z,31.45
2023-04-12T12:08:20.889Z,31.37
2023-04-12T12:11:13.164Z,31.92
2023-04-12T12:14:07.150Z,32.22
2023-04-12T12:17:00.044Z,32.29
2023-04-12T12:19:44.136Z,32.67
2023-04-12T12:22:36.798Z,32.00
2023-04-12T12:25:30.526Z,32.08
2023-04-12T12:28:26.172Z,32.42
2023-04-12T12:31:22.345Z,32.22
2023-04-12T12:34:19.400Z,32.37
2023-04-12T12:37:17.146Z,32.88
2023-04-12T12:40:11.336Z,32.62
2023-04-12T12:43:03.679Z,32.10
2023-04-12T12:45:56.278Z,32.57
2023-04-12T12:48:49.626Z,32.34
2023-04-12T12:51:42.613Z,31.85
2023-04-12T12:54:40.473Z,31.84
2023-04-12T12:57:35.740Z,31.94
2023-04-12T13:00:29.812Z,32.31
2023-04-12T13:03:22.327Z,32.43
2023-04-12T13:06:14.563Z,33.04
2023-04-12T13:09:07.151Z,32.71
2023-04-12T13:11:59.123Z,32.67
2023-04-12T13:14:51.120Z,33.21
2023-04-12T13:17:25.827Z,33.64
2023-04-12T13:20:17.975Z,33.61
2023-04-12T13:22:53.066Z,33.66
2023-04-12T13:25:45.348Z,33.37
2023-04-12T13:28:37.766Z,33.51
2023-04-12T13:31:30.163Z,33.61
2023-04-12T13:34:22.410Z,33.62
2023-04-12T13:37:14.455Z,33.46
2023-04-12T13:40:08.196Z,33.40
2023-04-12T13:43:00.393Z,33.59
2023-04-12T13:45:34.077Z,33.98
2023-04-12T13:48:26.269Z,33.79
2023-04-12T13:51:09.978Z,33.25
2023-04-12T13:54:02.220Z,33.03
2023-04-12T13:56:54.321Z,32.84
2023-04-12T13:59:26.636Z,33.03
2023-04-12T14:02:19.004Z,33.24
2023-04-12T14:04:55.386Z,33.59
2023-04-12T14:07:49.816Z,33.60
2023-04-12T14:10:31.034Z,33.67
2023-04-12T14:13:24.463Z,33.82
2023-04-12T14:16:16.432Z,34.17
2023-04-12T14:18:59.993Z,34.16
2023-04-12T14:21:52.203Z,33.61
2023-04-12T14:24:44.259Z,33.82
2023-04-12T14:27:27.961Z,33.88
2023-04-12T14:30:20.178Z,33.80
2023-04-12T14:33:12.242Z,33.85
2023-04-12T14:36:05.642Z,33.71
2023-04-12T14:38:58.234Z,33.68
2023-04-12T14:41:41.382Z,33.49
2023-04-12T14:44:33.433Z,33.46
2023-04-12T14:47:17.824Z,33.50
2023-04-12T14:50:11.791Z,33.48
2023-04-12T14:53:03.987Z,33.91
2023-04-12T14:55:55.978Z,33.82
2023-04-12T14:58:48.147Z,33.98
2023-04-12T15:01:40.387Z,34.15
2023-04-12T15:04:32.724Z,34.21
2023-04-12T15:07:24.916Z,34.12
2023-04-12T15:10:18.579Z,33.93
2023-04-12T15:13:10.803Z,33.80
2023-04-12T15:16:02.890Z,33.84
2023-04-12T15:18:55.181Z,34.34
2023-04-12T15:21:50.887Z,35.01
2023-04-12T15:24:42.989Z,34.94
2023-04-12T15:27:35.112Z,35.21
2023-04-12T15:30:27.710Z,35.43
2023-04-12T15:33:20.856Z,35.41
2023-04-12T15:36:13.156Z,35.77
2023-04-12T15:39:06.637Z,35.72
2023-04-12T15:42:00.252Z,35.78
2023-04-12T15:44:52.307Z,35.89
2023-04-12T15:47:45.907Z,36.21
2023-04-12T15:50:37.888Z,36.28
2023-04-12T15:53:29.891Z,36.45
2023-04-12T15:56:24.441Z,36.75
2023-04-12T15:59:18.733Z,36.75
2023-04-12T16:02:10.770Z,36.61
2023-04-12T16:05:02.979Z,37.13
2023-04-12T16:07:56.537Z,37.16
2023-04-12T16:10:48.684Z,37.02
2023-04-12T16:13:41.798Z,36.92
2023-04-12T16:16:33.971Z,37.30
2023-04-12T16:19:26.016Z,37.50
2023-04-12T16:22:18.031Z,37.57
2023-04-12T16:25:11.988Z,37.75
2023-04-12T16:28:05.204Z,37.66
2023-04-12T16:30:39.811Z,37.75
2023-04-12T16:33:31.887Z,37.59
2023-04-12T16:36:24.505Z,37.67
2023-04-12T16:39:16.659Z,37.60
2023-04-12T16:42:08.691Z,37.72
2023-04-12T16:45:00.827Z,37.89
2023-04-12T16:47:53.089Z,38.18
2023-04-12T16:50:47.322Z,38.37
2023-04-12T16:53:39.695Z,38.13
2023-04-12T16:56:32.350Z,38.41
2023-04-12T16:59:24.475Z,38.64
2023-04-12T17:02:07.923Z,38.89
2023-04-12T17:05:00.234Z,39.02
2023-04-12T17:07:54.134Z,38.82
2023-04-12T17:10:46.266Z,38.82
2023-04-12T17:13:38.263Z,38.93
2023-04-12T17:16:30.574Z,39.23
2023-04-12T17:19:22.939Z,39.33
2023-04-12T17:22:05.444Z,39.80
2023-04-12T17:24:57.815Z,40.19
2023-04-12T17:27:50.089Z,40.19
2023-04-12T17:30:42.247Z,40.33
2023-04-12T17:33:19.087Z,40.32
2023-04-12T17:36:12.160Z,40.66
2023-04-12T17:39:05.002Z,40.80
2023-04-12T17:41:47.928Z,40.71
2023-04-12T17:44:39.993Z,41.08
2023-04-12T17:47:34.435Z,41.21
2023-04-12T17:50:27.520Z,41.38
2023-04-12T17:53:19.590Z,41.57
2023-04-12T17:56:11.958Z,41.69
2023-04-12T17:58:47.012Z,41.84
2023-04-12T18:01:39.438Z,42.14
2023-04-12T18:04:32.124Z,42.72
2023-04-12T18:07:09.832Z,42.99
2023-04-12T18:10:03.142Z,43.30
2023-04-12T18:12:55.568Z,43.54
2023-04-12T18:15:48.136Z,43.83
2023-04-12T18:18:40.162Z,44.00
2023-04-12T18:21:33.027Z,44.21
2023-04-12T18:24:08.956Z,44.30
2023-04-12T18:27:01.647Z,44.35
2023-04-12T18:29:42.582Z,44.38
2023-04-12T18:32:35.009Z,44.41
2023-04-12T18:35:16.202Z,44.52
2023-04-12T18:38:08.529Z,44.64
2023-04-12T18:41:01.065Z,44.90
2023-04-12T18:43:53.431Z,45.00
2023-04-12T18:46:45.527Z,45.23
2023-04-12T18:49:38.434Z,45.35
2023-04-12T18:52:30.766Z,45.67
2023-04-12T18:55:23.137Z,45.80
2023-04-12T18:58:16.952Z,46.11
2023-04-12T19:01:09.670Z,46.21
2023-04-12T19:04:04.382Z,46.37
2023-04-12T19:06:39.368Z,46.59
2023-04-12T19:09:14.552Z,46.83
2023-04-12T19:11:48.689Z,47.00
2023-04-12T19:14:40.909Z,47.34
2023-04-12T19:17:36.496Z,47.55
2023-04-12T19:20:28.815Z,47.77
2023-04-12T19:23:21.272Z,48.00
2023-04-12T19:25:53.790Z,48.12
2023-04-12T19:28:46.181Z,48.38
2023-04-12T19:31:23.803Z,48.35
2023-04-12T19:34:17.897Z,48.66
2023-04-12T19:37:03.889Z,48.79
2023-04-12T19:39:55.820Z,49.13
2023-04-12T19:42:48.290Z,49.32
2023-04-12T19:45:40.271Z,49.60
2023-04-12T19:48:32.577Z,49.67
2023-04-12T19:51:10.246Z,49.96
2023-04-12T19:54:02.998Z,50.15
2023-04-12T19:56:37.773Z,50.26
2023-04-12T19:59:33.097Z,50.64
2023-04-12T20:02:12.262Z,50.69
2023-04-12T20:05:07.624Z,50.94
2023-04-12T20:08:00.126Z,51.16
2023-04-12T20:10:34.994Z,51.11
2023-04-12T20:13:28.585Z,51.40
2023-04-12T20:16:20.562Z,51.26
2023-04-12T20:19:13.223Z,51.50
2023-04-12T20:22:03.865Z,51.53
2023-04-12T20:24:58.121Z,51.76
2023-04-12T20:27:52.316Z,51.68
2023-04-12T20:30:45.719Z,51.88
2023-04-12T20:33:37.762Z,52.02
2023-04-12T20:36:30.310Z,52.13
2023-04-12T20:39:22.486Z,52.06
2023-04-12T20:42:01.191Z,52.06
2023-04-12T20:44:53.394Z,52.25
2023-04-12T20:47:45.494Z,52.39
2023-04-12T20:50:38.705Z,52.61
2023-04-12T20:53:27.307Z,52.59
2023-04-12T20:56:19.859Z,52.88
2023-04-12T20:59:11.921Z,53.06
2023-04-12T21:02:04.687Z,52.93
2023-04-12T21:04:58.183Z,53.29
2023-04-12T21:07:51.525Z,53.31
2023-04-12T21:10:43.628Z,53.45
2023-04-12T21:13:35.822Z,53.52
2023-04-12T21:16:28.098Z,53.75
2023-04-12T21:19:02.839Z,53.72
2023-04-12T21:21:55.001Z,53.94
2023-04-12T21:24:47.061Z,54.06
2023-04-12T21:27:39.256Z,54.19
2023-04-12T21:30:20.494Z,54.32
2023-04-12T21:32:57.504Z,54.41
2023-04-12T21:35:49.926Z,54.61
2023-04-12T21:38:42.170Z,54.65
2023-04-12T21:41:34.292Z,54.92
2023-04-12T21:44:26.674Z,54.93
2023-04-12T21:47:09.952Z,55.07
2023-04-12T21:49:53.069Z,55.07
2023-04-12T21:52:45.541Z,55.41
2023-04-12T21:55:18.548Z,55.47
2023-04-12T21:58:10.833Z,55.53
2023-04-12T22:01:03.863Z,55.71
2023-04-12T22:03:46.920Z,55.68
2023-04-12T22:06:39.089Z,55.73
2023-04-12T22:09:11.075Z,55.78
2023-04-12T22:12:02.189Z,55.96
2023-04-12T22:14:54.509Z,55.99
2023-04-12T22:17:46.623Z,56.17
2023-04-12T22:20:38.762Z,56.25
2023-04-12T22:23:30.812Z,56.21
2023-04-12T22:26:22.908Z,56.38
2023-04-12T22:29:17.669Z,56.47
2023-04-12T22:32:10.712Z,56.59
2023-04-12T22:34:58.099Z,56.70
2023-04-12T22:37:59.784Z,56.75
2023-04-12T22:40:52.225Z,56.73
2023-04-12T22:43:47.509Z,56.80
2023-04-12T22:46:50.817Z,56.70
2023-04-12T22:49:28.487Z,56.89
2023-04-12T22:52:21.776Z,56.98
2023-04-12T22:54:59.109Z,57.04
2023-04-12T22:57:51.137Z,57.26
2023-04-12T23:00:39.843Z,57.17
2023-04-12T23:03:31.847Z,57.41
2023-04-12T23:06:23.786Z,57.61
2023-04-12T23:09:06.955Z,57.65
2023-04-12T23:11:43.959Z,57.81
2023-04-12T23:14:18.705Z,57.96
2023-04-12T23:17:10.646Z,58.10
2023-04-12T23:20:05.487Z,57.99
2023-04-12T23:22:57.915Z,58.15
2023-04-12T23:25:41.563Z,58.23
2023-04-12T23:28:34.351Z,58.33
2023-04-12T23:31:26.505Z,58.35
2023-04-12T23:34:18.868Z,58.44
2023-04-12T23:37:11.396Z,58.33
2023-04-12T23:39:48.727Z,58.44
2023-04-12T23:42:40.974Z,58.58
2023-04-12T23:45:32.971Z,58.70
2023-04-12T23:48:25.930Z,58.82
2023-04-12T23:51:18.277Z,58.83
2023-04-12T23:54:10.187Z,58.93
2023-04-12T23:57:02.156Z,58.98
2023-04-12T23:59:54.144Z,58.89
